Terminal Aerodrome Forecast
Issued by NWS

Home | Current Version | Previous Version | Text Only | Print | Product List | Glossary On
Versions: 1 2 3 4 5 6 7 8 9 10 11 12 13 14 15
000
FTUS42 TJSJ 241138
TAFJBQ
TAF
TJBQ 241138Z 2412/2512 11008KT P6SM FEW040
     FM241400 08012G21KT P6SM SCT040
     FM241700 08015G25KT P6SM VCTS SCT022CB BKN040
     FM242300 10010KT P6SM FEW060=

USA.gov is the U.S. government's official web portal to all federal, state and local government web resources and services.